createdAt,value
2019-04-26T00:00:14.964Z,56.50
2019-04-26T00:02:45.958Z,56.50
2019-04-26T00:05:14.654Z,56.70
2019-04-26T00:07:43.394Z,56.90
2019-04-26T00:10:16.789Z,57.30
2019-04-26T00:12:52.562Z,57.10
2019-04-26T00:15:38.817Z,56.90
2019-04-26T00:18:07.476Z,57.10
2019-04-26T00:20:35.917Z,57.50
2019-04-26T00:23:04.332Z,57.60
2019-04-26T00:25:32.845Z,57.60
2019-04-26T00:28:01.258Z,57.60
2019-04-26T00:30:29.785Z,57.80
2019-04-26T00:32:58.276Z,57.70
2019-04-26T00:35:26.704Z,57.70
2019-04-26T00:37:55.113Z,58.10
2019-04-26T00:40:23.639Z,57.90
2019-04-26T00:42:52.642Z,58.10
2019-04-26T00:45:21.625Z,58.30
2019-04-26T00:47:51.583Z,58.30
2019-04-26T00:50:21.294Z,58.40
2019-04-26T00:52:50.784Z,58.70
2019-04-26T00:55:21.849Z,58.60
2019-04-26T00:57:51.205Z,58.50
2019-04-26T01:00:21.498Z,59.00
2019-04-26T01:02:51.898Z,59.10
2019-04-26T01:05:20.897Z,59.30
2019-04-26T01:07:51.025Z,59.40
2019-04-26T01:10:19.675Z,59.10
2019-04-26T01:12:48.149Z,59.10
2019-04-26T01:15:18.832Z,59.10
2019-04-26T01:17:46.957Z,59.30
2019-04-26T01:20:17.386Z,59.30
2019-04-26T01:22:49.449Z,59.40
2019-04-26T01:25:44.929Z,59.50
2019-04-26T01:28:19.708Z,59.50
2019-04-26T01:30:48.654Z,59.50
2019-04-26T01:33:17.825Z,59.60
2019-04-26T01:35:47.884Z,59.70
2019-04-26T01:38:17.005Z,60.00
2019-04-26T01:40:47.125Z,60.10
2019-04-26T01:43:21.578Z,60.00
2019-04-26T01:45:55.080Z,61.00
2019-04-26T01:48:45.756Z,60.30
2019-04-26T01:51:24.292Z,60.30
2019-04-26T01:53:53.117Z,60.60
2019-04-26T01:56:25.127Z,60.50
2019-04-26T01:58:54.074Z,60.50
2019-04-26T02:01:27.484Z,60.40
2019-04-26T02:03:56.186Z,60.40
2019-04-26T02:06:29.066Z,60.40
2019-04-26T02:08:55.277Z,60.40
2019-04-26T02:11:24.993Z,60.40
2019-04-26T02:13:53.664Z,60.30
2019-04-26T02:16:23.637Z,60.40
2019-04-26T02:18:52.210Z,60.50
2019-04-26T02:21:26.367Z,60.20
2019-04-26T02:23:57.110Z,60.20
2019-04-26T02:26:32.623Z,60.10
2019-04-26T02:29:03.761Z,60.00
2019-04-26T02:31:33.689Z,59.80
2019-04-26T02:34:04.013Z,60.00
2019-04-26T02:36:53.042Z,60.40
2019-04-26T02:39:06.205Z,60.40
2019-04-26T02:41:35.791Z,60.40
2019-04-26T02:44:11.343Z,60.60
2019-04-26T02:46:46.587Z,60.70
2019-04-26T02:49:17.343Z,60.80
2019-04-26T02:51:51.681Z,60.90
2019-04-26T02:54:29.062Z,61.20
2019-04-26T02:57:00.156Z,61.50
2019-04-26T02:59:38.755Z,61.70
2019-04-26T03:02:10.465Z,61.90
2019-04-26T03:04:42.317Z,62.20
2019-04-26T03:07:13.792Z,62.40
2019-04-26T03:09:44.591Z,62.30
2019-04-26T03:12:18.228Z,62.40
2019-04-26T03:14:51.399Z,62.70
2019-04-26T03:17:24.520Z,63.00
2019-04-26T03:20:03.225Z,62.90
2019-04-26T03:22:39.389Z,63.10
2019-04-26T03:25:27.165Z,63.00
2019-04-26T03:27:58.656Z,63.00
2019-04-26T03:30:38.129Z,63.30
2019-04-26T03:33:34.138Z,63.10
2019-04-26T03:36:18.607Z,63.20
2019-04-26T03:39:03.352Z,64.30
2019-04-26T03:41:41.054Z,63.30
2019-04-26T03:44:21.396Z,63.40
2019-04-26T03:46:52.906Z,63.20
2019-04-26T03:49:45.648Z,63.70
2019-04-26T03:52:19.337Z,63.70
2019-04-26T03:54:50.829Z,63.70
2019-04-26T03:57:29.727Z,64.20
2019-04-26T04:00:05.531Z,64.20
2019-04-26T04:02:45.555Z,64.20
2019-04-26T04:05:19.506Z,64.10
2019-04-26T04:07:51.597Z,64.40
2019-04-26T04:10:25.932Z,64.60
2019-04-26T04:13:20.194Z,64.80
2019-04-26T04:15:53.570Z,64.70
2019-04-26T04:18:28.161Z,64.70
2019-04-26T04:21:30.545Z,65.20
2019-04-26T04:24:04.667Z,65.30
2019-04-26T04:26:36.207Z,65.20
2019-04-26T04:29:42.578Z,65.40
2019-04-26T04:32:24.236Z,65.50
2019-04-26T04:34:55.673Z,65.70
2019-04-26T04:37:27.206Z,65.90
2019-04-26T04:40:08.769Z,66.10
2019-04-26T04:43:02.733Z,66.20
2019-04-26T04:46:11.637Z,66.20
2019-04-26T04:49:25.063Z,66.30
2019-04-26T04:52:23.694Z,66.20
2019-04-26T04:55:08.116Z,65.70
2019-04-26T04:58:06.540Z,65.90
2019-04-26T05:01:16.509Z,65.60
2019-04-26T05:03:53.856Z,65.70
2019-04-26T05:06:35.376Z,65.90
2019-04-26T05:09:07.267Z,65.90
2019-04-26T05:11:57.917Z,65.80
2019-04-26T05:14:50.171Z,65.80
2019-04-26T05:17:36.387Z,66.00
2019-04-26T05:20:29.020Z,66.20
2019-04-26T05:23:18.026Z,66.20
2019-04-26T05:26:40.504Z,66.40
2019-04-26T05:29:37.540Z,66.60
2019-04-26T05:32:23.905Z,66.60
2019-04-26T05:35:42.025Z,66.90
2019-04-26T05:38:18.716Z,66.90
2019-04-26T05:40:58.859Z,67.10
2019-04-26T05:43:40.579Z,67.20
2019-04-26T05:46:31.626Z,67.20
2019-04-26T05:49:19.513Z,67.40
2019-04-26T05:52:17.781Z,67.80
2019-04-26T05:55:06.049Z,68.40
2019-04-26T05:58:00.192Z,68.50
2019-04-26T06:00:33.353Z,68.40
2019-04-26T06:03:27.345Z,68.10
2019-04-26T06:06:23.837Z,68.00
2019-04-26T06:09:20.548Z,68.30
2019-04-26T06:11:56.668Z,68.50
2019-04-26T06:14:56.823Z,69.00
2019-04-26T06:18:01.822Z,69.50
2019-04-26T06:20:52.510Z,70.00
2019-04-26T06:23:35.857Z,70.40
2019-04-26T06:26:32.861Z,70.50
2019-04-26T06:29:06.991Z,70.70
2019-04-26T06:31:47.433Z,70.80
2019-04-26T06:34:24.905Z,71.10
2019-04-26T06:37:02.148Z,71.40
2019-04-26T06:39:42.592Z,71.50
2019-04-26T06:42:25.666Z,71.70
2019-04-26T06:45:10.618Z,71.60
2019-04-26T06:48:22.681Z,71.70
2019-04-26T06:51:05.526Z,71.50
2019-04-26T06:53:42.621Z,71.90
2019-04-26T06:56:15.802Z,72.20
2019-04-26T06:59:09.657Z,72.50
2019-04-26T07:01:59.147Z,72.40
2019-04-26T07:04:46.971Z,72.60
2019-04-26T07:07:34.732Z,72.90
2019-04-26T07:10:22.408Z,73.20
2019-04-26T07:13:09.746Z,73.60
2019-04-26T07:15:43.741Z,74.10
2019-04-26T07:18:24.172Z,74.50
2019-04-26T07:21:14.317Z,75.50
2019-04-26T07:23:59.268Z,75.70
2019-04-26T07:26:46.782Z,76.10
2019-04-26T07:29:42.363Z,76.70
2019-04-26T07:32:44.905Z,76.80
2019-04-26T07:35:18.109Z,77.60
2019-04-26T07:38:16.539Z,78.00
2019-04-26T07:41:09.351Z,78.20
2019-04-26T07:44:00.998Z,78.10
2019-04-26T07:46:41.726Z,78.20
2019-04-26T07:49:16.031Z,78.30
2019-04-26T07:52:21.781Z,78.60
2019-04-26T07:55:10.790Z,78.70
2019-04-26T07:58:08.802Z,78.70
2019-04-26T08:00:47.964Z,78.90
2019-04-26T08:03:44.849Z,79.60
2019-04-26T08:06:19.051Z,80.10
2019-04-26T08:08:53.461Z,79.10
2019-04-26T08:11:30.644Z,79.70
2019-04-26T08:14:22.993Z,80.90
2019-04-26T08:17:18.196Z,81.10
2019-04-26T08:19:58.918Z,81.50
2019-04-26T08:22:32.449Z,82.20
2019-04-26T08:25:01.160Z,80.90
2019-04-26T08:27:32.189Z,81.20
2019-04-26T08:30:10.100Z,82.40
2019-04-26T08:32:37.373Z,82.20
2019-04-26T08:35:16.889Z,81.70
2019-04-26T08:37:47.135Z,82.50
2019-04-26T08:40:26.522Z,83.00
2019-04-26T08:42:53.397Z,82.60
2019-04-26T08:45:35.492Z,83.00
2019-04-26T08:48:12.891Z,83.50
2019-04-26T08:50:46.936Z,82.70
2019-04-26T08:53:17.443Z,81.20
2019-04-26T08:55:47.813Z,81.40
2019-04-26T08:58:19.332Z,81.70
2019-04-26T09:00:51.631Z,81.80
2019-04-26T09:03:38.920Z,81.80
2019-04-26T09:06:14.546Z,81.90
2019-04-26T09:08:45.604Z,82.60
2019-04-26T09:11:24.091Z,82.00
2019-04-26T09:13:49.950Z,82.00
2019-04-26T09:16:19.711Z,82.50
2019-04-26T09:18:54.323Z,82.10
2019-04-26T09:21:20.590Z,82.40
2019-04-26T09:24:08.087Z,82.70
2019-04-26T09:26:46.672Z,82.30
2019-04-26T09:29:35.155Z,81.80
2019-04-26T09:32:11.252Z,82.00
2019-04-26T09:34:42.671Z,82.70
2019-04-26T09:37:11.472Z,80.70
2019-04-26T09:39:41.727Z,81.20
2019-04-26T09:42:27.982Z,80.90
2019-04-26T09:45:01.091Z,80.00
2019-04-26T09:47:36.984Z,81.50
2019-04-26T09:50:11.261Z,82.10
2019-04-26T09:52:41.692Z,80.60
2019-04-26T09:55:10.352Z,80.40
2019-04-26T09:57:38.779Z,81.40
2019-04-26T10:00:10.443Z,82.80
2019-04-26T10:02:40.500Z,82.10
2019-04-26T10:05:11.962Z,82.50
2019-04-26T10:07:39.420Z,81.60
2019-04-26T10:10:08.540Z,81.80
2019-04-26T10:12:47.593Z,82.10
2019-04-26T10:15:29.553Z,81.40
2019-04-26T10:17:58.657Z,81.20
2019-04-26T10:20:27.179Z,81.90
2019-04-26T10:22:55.752Z,82.10
2019-04-26T10:25:24.264Z,82.00
2019-04-26T10:27:52.845Z,81.40
2019-04-26T10:30:21.373Z,82.40
2019-04-26T10:32:49.853Z,83.10
2019-04-26T10:35:21.728Z,83.40
2019-04-26T10:37:49.277Z,82.80
2019-04-26T10:40:18.363Z,82.70
2019-04-26T10:42:46.779Z,82.70
2019-04-26T10:45:16.353Z,82.70
2019-04-26T10:47:44.871Z,83.20
2019-04-26T10:50:13.753Z,83.20
2019-04-26T10:52:49.496Z,84.20
2019-04-26T10:55:23.291Z,84.80
2019-04-26T10:58:02.357Z,84.50
2019-04-26T11:00:32.616Z,84.40
2019-04-26T11:03:04.560Z,85.60
2019-04-26T11:05:31.337Z,85.30
2019-04-26T11:07:59.779Z,84.30
2019-04-26T11:10:29.277Z,83.10
2019-04-26T11:12:57.664Z,82.80
2019-04-26T11:15:29.118Z,84.20
2019-04-26T11:17:56.395Z,85.20
2019-04-26T11:20:24.900Z,85.50
2019-04-26T11:22:53.348Z,85.70
2019-04-26T11:25:24.659Z,85.70
2019-04-26T11:27:52.164Z,86.10
2019-04-26T11:30:21.283Z,85.80
2019-04-26T11:32:49.876Z,85.80
2019-04-26T11:35:18.351Z,86.60
2019-04-26T11:37:50.552Z,86.30
2019-04-26T11:40:17.233Z,85.80
2019-04-26T11:42:45.978Z,85.30
2019-04-26T11:45:16.277Z,84.70
2019-04-26T11:47:55.396Z,85.00
2019-04-26T11:50:16.199Z,85.70
2019-04-26T11:52:44.979Z,85.80
2019-04-26T11:55:14.859Z,85.00
2019-04-26T11:57:43.730Z,84.90
2019-04-26T12:00:15.967Z,85.90
2019-04-26T12:02:46.292Z,86.30
2019-04-26T12:05:19.351Z,86.10
2019-04-26T12:07:58.580Z,85.40
2019-04-26T12:10:27.316Z,87.10
2019-04-26T12:13:05.124Z,86.50
2019-04-26T12:15:30.568Z,86.80
2019-04-26T12:17:58.668Z,86.20
2019-04-26T12:20:26.952Z,87.00
2019-04-26T12:22:56.557Z,85.50
2019-04-26T12:25:24.979Z,86.50
2019-04-26T12:27:53.718Z,87.20
2019-04-26T12:30:26.406Z,86.70
2019-04-26T12:32:52.534Z,88.00
2019-04-26T12:35:20.941Z,88.10
2019-04-26T12:37:50.698Z,86.70
2019-04-26T12:40:19.656Z,85.90
2019-04-26T12:42:48.397Z,85.20
2019-04-26T12:45:21.488Z,86.40
2019-04-26T12:47:51.588Z,87.00
2019-04-26T12:50:20.156Z,87.30
2019-04-26T12:52:51.498Z,87.20
2019-04-26T12:55:20.213Z,86.60
2019-04-26T12:57:48.726Z,87.30
2019-04-26T13:00:19.245Z,86.80
2019-04-26T13:02:50.251Z,86.60
2019-04-26T13:05:18.944Z,85.40
2019-04-26T13:07:49.677Z,85.20
2019-04-26T13:10:35.501Z,84.00
2019-04-26T13:13:12.078Z,83.30
2019-04-26T13:15:53.591Z,82.90
2019-04-26T13:18:22.110Z,84.00
2019-04-26T13:20:50.518Z,83.00
2019-04-26T13:23:18.985Z,83.50
2019-04-26T13:25:47.428Z,84.60
2019-04-26T13:28:20.236Z,85.30
2019-04-26T13:30:46.080Z,83.90
2019-04-26T13:33:14.592Z,83.20
2019-04-26T13:35:45.424Z,84.50
2019-04-26T13:38:13.457Z,84.10
2019-04-26T13:40:42.134Z,84.80
2019-04-26T13:43:10.576Z,83.80
2019-04-26T13:45:49.422Z,84.60
2019-04-26T13:48:34.296Z,84.80
2019-04-26T13:51:15.913Z,85.70
2019-04-26T13:53:44.375Z,84.20
2019-04-26T13:56:12.810Z,84.80
2019-04-26T13:58:41.336Z,83.20
2019-04-26T14:01:14.422Z,82.40
2019-04-26T14:03:40.929Z,82.20
2019-04-26T14:06:09.425Z,82.60
2019-04-26T14:08:37.883Z,82.40
2019-04-26T14:11:06.360Z,83.10
2019-04-26T14:13:34.895Z,83.70
2019-04-26T14:16:05.084Z,83.90
2019-04-26T14:18:34.658Z,84.00
2019-04-26T14:21:03.810Z,84.20
2019-04-26T14:23:36.646Z,84.70
2019-04-26T14:26:09.584Z,84.70
2019-04-26T14:28:38.058Z,84.80
2019-04-26T14:31:06.557Z,85.00
2019-04-26T14:33:34.983Z,84.20
2019-04-26T14:36:16.668Z,83.50
2019-04-26T14:38:39.478Z,82.60
2019-04-26T14:41:04.779Z,82.00
2019-04-26T14:43:40.522Z,82.40
2019-04-26T14:46:03.736Z,82.40
2019-04-26T14:48:36.776Z,83.00
2019-04-26T14:51:08.066Z,82.80
2019-04-26T14:53:36.308Z,82.90
2019-04-26T14:56:02.703Z,82.50
2019-04-26T14:58:33.605Z,83.70
2019-04-26T15:01:15.190Z,84.50
2019-04-26T15:03:45.261Z,83.10
2019-04-26T15:06:20.510Z,82.30
2019-04-26T15:08:48.908Z,80.70
2019-04-26T15:11:17.473Z,80.60
2019-04-26T15:13:45.925Z,80.40
2019-04-26T15:16:14.517Z,79.10
2019-04-26T15:18:43.050Z,77.60
2019-04-26T15:21:12.907Z,79.20
2019-04-26T15:23:41.472Z,77.50
2019-04-26T15:26:09.925Z,77.80
2019-04-26T15:28:38.488Z,78.40
2019-04-26T15:31:06.946Z,79.10
2019-04-26T15:33:36.002Z,78.50
2019-04-26T15:36:06.273Z,78.90
2019-04-26T15:38:41.385Z,78.50
2019-04-26T15:41:11.509Z,75.90
2019-04-26T15:43:39.115Z,76.00
2019-04-26T15:46:12.348Z,77.30
2019-04-26T15:49:04.723Z,76.50
2019-04-26T15:51:33.451Z,76.80
2019-04-26T15:54:01.905Z,76.40
2019-04-26T15:56:30.461Z,76.10
2019-04-26T15:58:59.064Z,76.60
2019-04-26T16:01:27.520Z,78.00
2019-04-26T16:03:55.954Z,78.70
2019-04-26T16:06:24.423Z,78.10
2019-04-26T16:08:52.826Z,76.80
2019-04-26T16:11:21.277Z,76.80
2019-04-26T16:13:52.141Z,77.70
2019-04-26T16:16:20.643Z,76.80
2019-04-26T16:18:55.502Z,77.90
2019-04-26T16:21:21.808Z,77.50
2019-04-26T16:23:52.006Z,76.20
2019-04-26T16:26:20.640Z,77.50
2019-04-26T16:29:05.698Z,77.30
2019-04-26T16:31:42.148Z,77.70
2019-04-26T16:34:11.602Z,78.30
2019-04-26T16:36:45.020Z,78.70
2019-04-26T16:39:13.835Z,77.10
2019-04-26T16:41:42.582Z,77.60
2019-04-26T16:44:12.874Z,77.80
2019-04-26T16:46:43.481Z,78.40
2019-04-26T16:49:14.075Z,78.20
2019-04-26T16:51:43.586Z,79.70
2019-04-26T16:54:20.856Z,79.20
2019-04-26T16:56:43.844Z,79.90
2019-04-26T16:59:14.425Z,79.00
2019-04-26T17:01:47.185Z,79.50
2019-04-26T17:04:14.154Z,79.60
2019-04-26T17:06:44.766Z,80.00
2019-04-26T17:09:14.355Z,81.10
2019-04-26T17:11:43.538Z,81.60
2019-04-26T17:14:13.215Z,80.00
2019-04-26T17:16:44.019Z,80.00
2019-04-26T17:19:13.669Z,80.10
2019-04-26T17:21:43.908Z,82.10
2019-04-26T17:24:20.009Z,81.60
2019-04-26T17:26:50.181Z,82.00
2019-04-26T17:29:18.722Z,82.00
2019-04-26T17:31:47.265Z,82.90
2019-04-26T17:34:15.843Z,82.40
2019-04-26T17:36:46.284Z,81.80
2019-04-26T17:39:17.181Z,81.30
2019-04-26T17:41:50.519Z,82.00
2019-04-26T17:44:15.172Z,81.40
2019-04-26T17:46:43.708Z,83.10
2019-04-26T17:49:12.148Z,83.50
2019-04-26T17:51:44.352Z,84.10
2019-04-26T17:54:41.035Z,84.60
2019-04-26T17:56:42.681Z,84.80
2019-04-26T17:59:24.175Z,83.40
2019-04-26T18:01:47.454Z,82.90
2019-04-26T18:04:11.570Z,84.70
2019-04-26T18:06:40.403Z,84.40
2019-04-26T18:09:13.240Z,84.80
2019-04-26T18:11:41.136Z,86.00
2019-04-26T18:14:20.737Z,86.10
2019-04-26T18:16:42.740Z,85.70
2019-04-26T18:19:15.638Z,86.60
2019-04-26T18:21:49.478Z,86.20
2019-04-26T18:24:15.964Z,86.30
2019-04-26T18:26:44.485Z,85.60
2019-04-26T18:29:13.169Z,85.00
2019-04-26T18:31:43.684Z,85.00
2019-04-26T18:34:12.792Z,85.80
2019-04-26T18:36:42.893Z,85.90
2019-04-26T18:39:11.634Z,86.50
2019-04-26T18:41:40.246Z,87.00
2019-04-26T18:44:08.721Z,86.70
2019-04-26T18:46:40.586Z,86.80
2019-04-26T18:49:11.274Z,86.70
2019-04-26T18:51:43.313Z,86.90
2019-04-26T18:54:14.517Z,86.90
2019-04-26T18:56:42.924Z,87.20
2019-04-26T18:59:12.921Z,87.50
2019-04-26T19:01:42.084Z,87.80
2019-04-26T19:04:13.559Z,87.90
2019-04-26T19:06:42.405Z,88.00
2019-04-26T19:09:12.182Z,88.30
2019-04-26T19:11:43.836Z,88.60
2019-04-26T19:14:31.741Z,88.90
2019-04-26T19:17:02.215Z,88.80
2019-04-26T19:19:38.322Z,88.70
2019-04-26T19:22:09.494Z,88.70
2019-04-26T19:24:38.770Z,88.80
2019-04-26T19:27:07.409Z,88.90
2019-04-26T19:29:36.296Z,89.30
2019-04-26T19:32:05.465Z,89.90
2019-04-26T19:34:33.988Z,90.00
2019-04-26T19:37:03.386Z,90.10
2019-04-26T19:39:35.405Z,90.10
2019-04-26T19:42:02.575Z,90.20
2019-04-26T19:44:31.591Z,90.30
2019-04-26T19:47:13.832Z,90.40
2019-04-26T19:49:43.976Z,90.40
2019-04-26T19:52:20.112Z,90.20
2019-04-26T19:54:51.300Z,90.20
2019-04-26T19:57:24.740Z,89.90
2019-04-26T19:59:53.193Z,88.50
2019-04-26T20:02:21.712Z,88.30
2019-04-26T20:04:51.384Z,87.80
2019-04-26T20:07:19.906Z,87.20
2019-04-26T20:09:48.358Z,86.90
2019-04-26T20:12:16.790Z,87.00
2019-04-26T20:14:50.677Z,86.60
2019-04-26T20:17:19.978Z,86.20
2019-04-26T20:19:47.684Z,85.90
2019-04-26T20:22:15.776Z,85.90
2019-04-26T20:24:44.237Z,85.50
2019-04-26T20:27:15.665Z,85.00
2019-04-26T20:29:47.309Z,90.00
2019-04-26T20:32:21.139Z,93.60
2019-04-26T20:34:49.509Z,91.30
2019-04-26T20:37:22.817Z,86.00
2019-04-26T20:39:55.900Z,86.60
2019-04-26T20:42:19.011Z,84.80
2019-04-26T20:44:51.049Z,81.30
2019-04-26T20:47:17.889Z,81.60
2019-04-26T20:49:49.607Z,79.70
2019-04-26T20:52:20.785Z,76.90
2019-04-26T20:54:52.634Z,74.90
2019-04-26T20:57:17.028Z,75.10
2019-04-26T20:59:45.526Z,75.80
2019-04-26T21:02:16.264Z,76.80
2019-04-26T21:04:46.107Z,77.30
2019-04-26T21:07:14.461Z,77.60
2019-04-26T21:09:43.534Z,77.90
2019-04-26T21:12:15.883Z,78.80
2019-04-26T21:14:44.586Z,78.60
2019-04-26T21:17:13.450Z,78.50
2019-04-26T21:19:42.130Z,79.10
2019-04-26T21:22:10.711Z,79.40
2019-04-26T21:24:43.554Z,80.10
2019-04-26T21:27:16.670Z,80.10
2019-04-26T21:29:52.413Z,80.40
2019-04-26T21:32:26.215Z,80.20
2019-04-26T21:34:56.242Z,80.70
2019-04-26T21:37:26.389Z,80.40
2019-04-26T21:40:10.975Z,80.20
2019-04-26T21:42:39.545Z,79.90
2019-04-26T21:45:08.302Z,79.90
2019-04-26T21:47:37.208Z,80.30
2019-04-26T21:50:06.781Z,80.10
2019-04-26T21:52:35.460Z,80.00
2019-04-26T21:55:06.516Z,80.90
2019-04-26T21:57:35.107Z,80.20
2019-04-26T22:00:06.570Z,80.30
2019-04-26T22:02:37.435Z,81.80
2019-04-26T22:05:08.070Z,80.20
2019-04-26T22:07:39.433Z,80.30
2019-04-26T22:10:20.415Z,80.40
2019-04-26T22:12:49.024Z,80.60
2019-04-26T22:15:24.867Z,81.20
2019-04-26T22:17:55.004Z,81.20
2019-04-26T22:20:25.149Z,81.30
2019-04-26T22:22:57.863Z,81.50
2019-04-26T22:25:27.979Z,81.50
2019-04-26T22:28:00.301Z,81.60
2019-04-26T22:30:29.536Z,81.60
2019-04-26T22:32:58.563Z,81.50
2019-04-26T22:35:27.219Z,81.70
2019-04-26T22:37:55.621Z,82.00
2019-04-26T22:40:24.151Z,82.30
2019-04-26T22:42:54.431Z,82.20
2019-04-26T22:45:27.948Z,82.20
2019-04-26T22:48:03.954Z,82.60
2019-04-26T22:50:33.528Z,82.40
2019-04-26T22:53:03.910Z,82.00
2019-04-26T22:55:33.385Z,82.10
2019-04-26T22:58:03.259Z,82.00
2019-04-26T23:00:33.681Z,82.10
2019-04-26T23:03:03.718Z,82.20
2019-04-26T23:05:35.618Z,82.00
2019-04-26T23:08:03.317Z,82.60
2019-04-26T23:10:34.080Z,82.70
2019-04-26T23:13:07.629Z,82.30
2019-04-26T23:15:39.297Z,82.00
2019-04-26T23:18:13.766Z,82.00
2019-04-26T23:20:44.087Z,81.90
2019-04-26T23:23:13.477Z,82.10
2019-04-26T23:25:43.516Z,81.90
2019-04-26T23:28:11.946Z,81.70
2019-04-26T23:30:40.436Z,81.80
2019-04-26T23:33:08.904Z,82.00
2019-04-26T23:35:43.294Z,82.20
2019-04-26T23:38:07.471Z,82.70
2019-04-26T23:40:35.984Z,83.10
2019-04-26T23:43:04.544Z,83.30
2019-04-26T23:45:33.392Z,83.00
2019-04-26T23:48:03.410Z,83.20
2019-04-26T23:50:33.965Z,83.40
2019-04-26T23:53:02.993Z,83.30
2019-04-26T23:55:31.576Z,83.60
2019-04-26T23:58:00.018Z,83.70
